Time;durP1;ratioP1;P1;durP2;ratioP2;P2;SDS_P1;SDS_P2;PMS_P1;PMS_P2;Temp;Humidity;BMP_temperature;BMP_pressure;BME280_temperature;BME280_humidity;BME280_pressure;Samples;Min_cycle;Max_cycle;Signal;HPM_P1;HPM_P2
2022/02/02 00:02:38;;;;;;;;;;;22.00;46.70;;;;;;5083681;28;19908;-69
2022/02/02 00:05:13;;;;;;;;;;;22.00;46.80;;;;;;5084970;28;19960;-70
2022/02/02 00:07:51;;;;;;;;;;;22.00;46.90;;;;;;5085390;28;20003;-70
2022/02/02 00:13:00;;;;;;;;;;;22.00;46.90;;;;;;5082335;28;19916;-70
2022/02/02 00:18:31;;;;;;;;;;;22.00;47.00;;;;;;5084077;28;20142;-69
2022/02/02 00:21:02;;;;;;;;;;;21.90;46.90;;;;;;5085525;28;19940;-69
2022/02/02 00:23:35;;;;;;;;;;;21.90;46.90;;;;;;5084006;28;20011;-70
2022/02/02 00:26:06;;;;;;;;;;;21.90;46.80;;;;;;5085009;28;19927;-70
2022/02/02 00:28:36;;;;;;;;;;;21.90;46.80;;;;;;5082759;28;19912;-70
2022/02/02 00:31:07;;;;;;;;;;;21.90;46.80;;;;;;5082178;28;19912;-69
2022/02/02 00:33:39;;;;;;;;;;;21.90;46.80;;;;;;5081210;28;20196;-70
2022/02/02 00:36:16;;;;;;;;;;;21.90;46.70;;;;;;5085030;28;19912;-70
2022/02/02 00:38:42;;;;;;;;;;;21.80;46.80;;;;;;5083126;28;20292;-69
2022/02/02 00:41:07;;;;;;;;;;;21.80;46.80;;;;;;5085654;28;19920;-69
2022/02/02 00:43:33;;;;;;;;;;;21.70;46.80;;;;;;5079585;28;19916;-69
2022/02/02 00:45:59;;;;;;;;;;;21.70;46.90;;;;;;5081476;28;19912;-70
2022/02/02 00:48:27;;;;;;;;;;;21.70;47.40;;;;;;5084980;28;20245;-70
2022/02/02 00:50:53;;;;;;;;;;;21.70;47.00;;;;;;5084455;28;19926;-70
2022/02/02 00:53:18;;;;;;;;;;;21.70;46.90;;;;;;5083669;28;20272;-70
2022/02/02 00:55:44;;;;;;;;;;;21.70;46.90;;;;;;5084432;28;19931;-69
2022/02/02 00:58:10;;;;;;;;;;;21.70;47.00;;;;;;5081533;28;19923;-69
2022/02/02 01:00:36;;;;;;;;;;;21.70;47.10;;;;;;5084724;28;20329;-70
2022/02/02 01:03:02;;;;;;;;;;;21.70;47.20;;;;;;5084183;28;20027;-70
2022/02/02 01:05:27;;;;;;;;;;;21.70;47.20;;;;;;5083931;28;20007;-70
2022/02/02 01:11:49;;;;;;;;;;;21.70;47.10;;;;;;5085043;28;19923;-70
2022/02/02 01:19:00;;;;;;;;;;;21.60;47.00;;;;;;5083684;28;19956;-70
2022/02/02 01:22:16;;;;;;;;;;;21.50;47.00;;;;;;5086204;28;19963;-71
2022/02/02 01:29:40;;;;;;;;;;;21.50;47.10;;;;;;5082610;28;19942;-70
2022/02/02 01:32:06;;;;;;;;;;;21.50;47.10;;;;;;5089113;28;19920;-69
2022/02/02 01:34:31;;;;;;;;;;;21.50;47.10;;;;;;5085271;28;19920;-70
2022/02/02 01:36:57;;;;;;;;;;;21.50;47.20;;;;;;5087961;28;20003;-70
2022/02/02 01:39:26;;;;;;;;;;;21.60;47.20;;;;;;5085627;28;20334;-70
2022/02/02 01:41:52;;;;;;;;;;;21.50;47.10;;;;;;5088481;28;19924;-69
2022/02/02 01:46:52;;;;;;;;;;;21.50;47.40;;;;;;5088798;28;19920;-70
2022/02/02 01:52:24;;;;;;;;;;;21.50;47.30;;;;;;5088363;28;19927;-70
2022/02/02 01:57:35;;;;;;;;;;;21.40;47.30;;;;;;5087681;28;19931;-69
2022/02/02 01:59:59;;;;;;;;;;;21.40;47.30;;;;;;5084930;28;20296;-70
2022/02/02 02:02:25;;;;;;;;;;;21.40;47.30;;;;;;5086857;28;19922;-70
2022/02/02 02:04:51;;;;;;;;;;;21.40;47.30;;;;;;5087940;28;19916;-70
2022/02/02 02:07:16;;;;;;;;;;;21.40;47.30;;;;;;5087234;28;19968;-70
2022/02/02 02:09:42;;;;;;;;;;;21.40;47.30;;;;;;5086371;28;19927;-70
2022/02/02 02:12:09;;;;;;;;;;;21.40;47.30;;;;;;5087221;28;19916;-70
2022/02/02 02:15:11;;;;;;;;;;;21.50;47.40;;;;;;5083671;28;19923;-69
2022/02/02 02:17:27;;;;;;;;;;;21.50;47.30;;;;;;5084446;28;19912;-70
2022/02/02 02:19:53;;;;;;;;;;;21.50;47.30;;;;;;5085294;28;19968;-70
2022/02/02 02:22:23;;;;;;;;;;;21.40;47.40;;;;;;5088049;28;19921;-70
2022/02/02 02:24:49;;;;;;;;;;;21.40;47.50;;;;;;5086213;28;20446;-70
2022/02/02 02:27:18;;;;;;;;;;;21.40;47.60;;;;;;5086507;28;19927;-70
2022/02/02 02:30:27;;;;;;;;;;;21.40;47.60;;;;;;5081738;28;19923;-70
2022/02/02 02:37:40;;;;;;;;;;;21.30;47.60;;;;;;5087188;28;20144;-71
2022/02/02 02:56:48;;;;;;;;;;;21.30;47.50;;;;;;5082371;28;20015;-70
2022/02/02 02:59:19;;;;;;;;;;;21.30;47.60;;;;;;5083192;28;19942;-70
2022/02/02 03:32:30;;;;;;;;;;;21.30;47.70;;;;;;5086479;28;19970;-70
2022/02/02 03:56:55;;;;;;;;;;;21.10;47.90;;;;;;5085441;28;20383;-70
2022/02/02 04:01:49;;;;;;;;;;;21.10;48.10;;;;;;5085140;28;19978;-70
2022/02/02 04:07:08;;;;;;;;;;;21.20;47.90;;;;;;5085284;28;19920;-69
2022/02/02 04:09:33;;;;;;;;;;;21.20;47.80;;;;;;5085261;28;19909;-69
2022/02/02 04:39:00;;;;;;;;;;;21.10;48.00;;;;;;5082502;28;20012;-70
2022/02/02 04:51:30;;;;;;;;;;;21.10;47.90;;;;;;5079920;28;20421;-71
2022/02/02 05:01:15;;;;;;;;;;;21.00;48.00;;;;;;5083431;28;20015;-70
2022/02/02 05:06:30;;;;;;;;;;;21.00;48.00;;;;;;5088639;28;20371;-70
2022/02/02 05:28:55;;;;;;;;;;;21.10;48.00;;;;;;5086069;28;19912;-70
2022/02/02 05:53:20;;;;;;;;;;;21.00;48.20;;;;;;5085419;28;19916;-70
2022/02/02 05:55:46;;;;;;;;;;;21.00;48.30;;;;;;5086510;28;19963;-70
2022/02/02 05:58:12;;;;;;;;;;;21.00;48.30;;;;;;5081670;28;20440;-70
2022/02/02 06:00:39;;;;;;;;;;;21.00;48.40;;;;;;5078643;28;20383;-70
2022/02/02 06:03:11;;;;;;;;;;;21.00;48.40;;;;;;5084817;28;20030;-69
2022/02/02 06:05:37;;;;;;;;;;;21.10;48.40;;;;;;5085851;28;20629;-70
2022/02/02 06:08:03;;;;;;;;;;;21.10;48.30;;;;;;5085073;28;19969;-70
2022/02/02 06:10:30;;;;;;;;;;;21.10;48.30;;;;;;5086134;28;20363;-69
2022/02/02 06:12:59;;;;;;;;;;;21.10;48.30;;;;;;5082258;28;20342;-70
2022/02/02 06:15:25;;;;;;;;;;;21.00;48.20;;;;;;5081949;28;19955;-70
2022/02/02 06:17:52;;;;;;;;;;;21.00;48.20;;;;;;5086245;28;19963;-70
2022/02/02 06:20:19;;;;;;;;;;;21.00;48.30;;;;;;5087898;28;19923;-69
2022/02/02 06:22:47;;;;;;;;;;;21.00;48.30;;;;;;5087051;28;19924;-70
2022/02/02 06:25:15;;;;;;;;;;;21.00;48.30;;;;;;5074976;28;20143;-72
2022/02/02 06:27:43;;;;;;;;;;;21.00;48.70;;;;;;5079324;28;20145;-73
2022/02/02 06:30:09;;;;;;;;;;;21.10;49.60;;;;;;5084534;28;20254;-69
2022/02/02 06:32:37;;;;;;;;;;;21.30;49.80;;;;;;5087450;28;19917;-71
2022/02/02 06:35:05;;;;;;;;;;;21.50;49.70;;;;;;5084521;28;20401;-71
2022/02/02 06:37:31;;;;;;;;;;;21.70;49.30;;;;;;5084214;28;19920;-71
2022/02/02 06:39:57;;;;;;;;;;;21.80;49.00;;;;;;5085464;28;19983;-70
2022/02/02 06:42:22;;;;;;;;;;;22.00;48.80;;;;;;5084417;28;19912;-73
2022/02/02 06:44:48;;;;;;;;;;;22.10;48.50;;;;;;5081864;28;19915;-69
2022/02/02 06:47:14;;;;;;;;;;;22.30;48.40;;;;;;5084714;28;19923;-71
2022/02/02 06:49:42;;;;;;;;;;;22.40;48.30;;;;;;5086099;28;20423;-70
2022/02/02 06:52:16;;;;;;;;;;;22.60;48.00;;;;;;5086220;28;19960;-71
2022/02/02 06:54:51;;;;;;;;;;;22.70;47.90;;;;;;5084964;28;19924;-69
2022/02/02 06:57:22;;;;;;;;;;;22.70;47.70;;;;;;5084305;28;20465;-71
2022/02/02 07:00:11;;;;;;;;;;;22.60;47.70;;;;;;5084296;28;19912;-72
2022/02/02 07:08:11;;;;;;;;;;;22.40;47.80;;;;;;5085679;28;19923;-72
2022/02/02 07:11:01;;;;;;;;;;;22.40;47.80;;;;;;5087906;28;19930;-73
2022/02/02 07:24:16;;;;;;;;;;;22.50;48.00;;;;;;5084213;28;19916;-69
2022/02/02 07:34:57;;;;;;;;;;;22.50;47.30;;;;;;5084501;28;19952;-70
2022/02/02 07:37:31;;;;;;;;;;;22.50;47.50;;;;;;5084873;28;20220;-71
2022/02/02 07:39:59;;;;;;;;;;;22.50;47.70;;;;;;5084547;28;20417;-71
2022/02/02 07:42:25;;;;;;;;;;;22.60;48.10;;;;;;5076543;28;19912;-71
2022/02/02 07:44:52;;;;;;;;;;;22.60;48.20;;;;;;5083619;28;19926;-68
2022/02/02 07:47:19;;;;;;;;;;;22.60;48.50;;;;;;5086572;28;19916;-70
2022/02/02 07:49:49;;;;;;;;;;;22.60;48.70;;;;;;5081969;28;20452;-72
2022/02/02 07:52:16;;;;;;;;;;;22.70;49.10;;;;;;5086357;28;20362;-72
2022/02/02 07:54:42;;;;;;;;;;;22.70;49.30;;;;;;5085317;28;20459;-72
2022/02/02 07:57:14;;;;;;;;;;;22.80;49.40;;;;;;5084711;28;19915;-70
2022/02/02 07:59:59;;;;;;;;;;;22.80;49.60;;;;;;5081813;28;19916;-71
2022/02/02 08:05:11;;;;;;;;;;;22.80;49.90;;;;;;5085520;28;19912;-70
2022/02/02 08:07:43;;;;;;;;;;;22.90;50.10;;;;;;5085475;28;20253;-68
2022/02/02 08:10:21;;;;;;;;;;;22.90;50.20;;;;;;5086672;28;19917;-69
2022/02/02 08:12:54;;;;;;;;;;;22.90;50.50;;;;;;5084091;28;19964;-67
2022/02/02 08:15:22;;;;;;;;;;;22.90;50.50;;;;;;5086205;28;19920;-72
2022/02/02 08:17:50;;;;;;;;;;;22.90;50.70;;;;;;5086513;28;20291;-71
2022/02/02 08:20:16;;;;;;;;;;;23.00;50.70;;;;;;5083517;28;19920;-69
2022/02/02 08:22:41;;;;;;;;;;;23.00;50.80;;;;;;5099192;28;20279;-71
2022/02/02 08:25:07;;;;;;;;;;;23.00;50.70;;;;;;5085168;28;19988;-70
2022/02/02 08:27:39;;;;;;;;;;;23.00;50.90;;;;;;5086578;28;19916;-68
2022/02/02 08:30:11;;;;;;;;;;;23.00;50.80;;;;;;5083319;28;19913;-70
2022/02/02 08:32:43;;;;;;;;;;;23.10;50.90;;;;;;5085564;28;20359;-70
2022/02/02 08:35:09;;;;;;;;;;;23.10;50.90;;;;;;5084373;28;19916;-74
2022/02/02 08:37:37;;;;;;;;;;;23.10;50.90;;;;;;5085962;28;20788;-69
2022/02/02 08:42:44;;;;;;;;;;;23.20;51.00;;;;;;5087681;28;19916;-70
2022/02/02 08:47:51;;;;;;;;;;;23.20;51.00;;;;;;5090992;28;19916;-69
2022/02/02 08:50:25;;;;;;;;;;;23.20;51.00;;;;;;5093151;28;19947;-70
2022/02/02 08:52:55;;;;;;;;;;;23.30;51.00;;;;;;5095349;28;20331;-69
2022/02/02 08:55:34;;;;;;;;;;;23.30;50.90;;;;;;5096857;28;19998;-72
2022/02/02 08:58:46;;;;;;;;;;;23.30;50.90;;;;;;5091702;28;20408;-70
2022/02/02 09:00:48;;;;;;;;;;;23.40;50.90;;;;;;5080881;28;19927;-72
2022/02/02 09:05:57;;;;;;;;;;;23.40;50.80;;;;;;5092250;28;20450;-69
2022/02/02 09:08:28;;;;;;;;;;;23.40;50.70;;;;;;5092902;28;19916;-70
2022/02/02 09:25:05;;;;;;;;;;;23.60;50.60;;;;;;5093063;28;19918;-67
2022/02/02 09:35:24;;;;;;;;;;;23.60;50.60;;;;;;5088410;28;20367;-69
2022/02/02 09:37:50;;;;;;;;;;;23.60;50.50;;;;;;5087784;28;19928;-70
2022/02/02 09:42:47;;;;;;;;;;;23.70;50.80;;;;;;5087319;28;19959;-68
2022/02/02 09:45:16;;;;;;;;;;;23.70;50.80;;;;;;5087193;28;19927;-67
2022/02/02 09:47:53;;;;;;;;;;;23.80;50.80;;;;;;5088745;28;19999;-69
2022/02/02 09:50:26;;;;;;;;;;;23.80;50.70;;;;;;5089099;28;20367;-69
2022/02/02 09:52:54;;;;;;;;;;;23.80;50.60;;;;;;5086635;28;19920;-69
2022/02/02 09:55:46;;;;;;;;;;;23.80;50.70;;;;;;5087893;28;20382;-71
2022/02/02 10:06:08;;;;;;;;;;;23.90;50.90;;;;;;5088060;28;19991;-68
2022/02/02 10:11:35;;;;;;;;;;;23.90;50.90;;;;;;5086209;28;20419;-70
2022/02/02 10:16:43;;;;;;;;;;;24.00;51.10;;;;;;5085852;28;20048;-69
2022/02/02 10:19:15;;;;;;;;;;;24.00;51.10;;;;;;5085324;28;20295;-71
2022/02/02 10:21:41;;;;;;;;;;;24.00;51.30;;;;;;5103610;28;19924;-70
2022/02/02 10:24:07;;;;;;;;;;;24.10;50.90;;;;;;5085629;28;20279;-69
2022/02/02 10:26:32;;;;;;;;;;;24.00;51.00;;;;;;5088071;28;19932;-69
2022/02/02 10:29:06;;;;;;;;;;;24.00;50.80;;;;;;5083318;28;19916;-67
2022/02/02 10:31:38;;;;;;;;;;;24.00;50.60;;;;;;5086461;28;19920;-70
2022/02/02 10:34:12;;;;;;;;;;;24.00;50.50;;;;;;5086262;28;20416;-69
2022/02/02 10:36:38;;;;;;;;;;;24.00;50.40;;;;;;5085928;28;20489;-68
2022/02/02 10:39:14;;;;;;;;;;;24.00;50.20;;;;;;5083427;28;19941;-71
2022/02/02 10:41:43;;;;;;;;;;;24.00;50.10;;;;;;5088061;28;19916;-71
2022/02/02 10:44:13;;;;;;;;;;;24.00;49.90;;;;;;5084757;28;20368;-70
2022/02/02 10:49:09;;;;;;;;;;;24.00;45.90;;;;;;5087408;28;19912;-69
2022/02/02 10:51:44;;;;;;;;;;;23.90;45.10;;;;;;5088132;28;20435;-67
2022/02/02 10:54:24;;;;;;;;;;;23.90;45.40;;;;;;5086795;28;19999;-68
2022/02/02 11:06:58;;;;;;;;;;;23.80;45.30;;;;;;5084201;28;19919;-70
2022/02/02 11:09:24;;;;;;;;;;;23.80;45.30;;;;;;5082715;28;19916;-66
2022/02/02 11:11:51;;;;;;;;;;;23.80;45.50;;;;;;5083362;28;19912;-69
2022/02/02 11:14:17;;;;;;;;;;;23.70;45.30;;;;;;5078667;28;19919;-67
2022/02/02 11:16:47;;;;;;;;;;;23.70;45.20;;;;;;5081760;28;19922;-68
2022/02/02 11:19:14;;;;;;;;;;;23.70;45.10;;;;;;5082661;28;19951;-67
2022/02/02 11:21:40;;;;;;;;;;;23.70;45.10;;;;;;5085445;28;20478;-68
2022/02/02 11:24:15;;;;;;;;;;;23.70;45.20;;;;;;5084418;28;20003;-69
2022/02/02 11:26:40;;;;;;;;;;;23.60;45.10;;;;;;5081715;28;19912;-69
2022/02/02 11:29:06;;;;;;;;;;;23.60;45.10;;;;;;5081631;28;19961;-68
2022/02/02 11:31:32;;;;;;;;;;;23.60;45.20;;;;;;5083520;28;20315;-69
2022/02/02 11:33:59;;;;;;;;;;;23.60;45.30;;;;;;5083639;28;19965;-68
2022/02/02 11:36:35;;;;;;;;;;;23.50;45.00;;;;;;5085418;28;20326;-69
2022/02/02 11:39:08;;;;;;;;;;;23.50;45.10;;;;;;5081255;28;19927;-68
2022/02/02 11:47:09;;;;;;;;;;;23.50;45.10;;;;;;5083113;28;20052;-72
2022/02/02 11:49:44;;;;;;;;;;;23.50;45.20;;;;;;5084527;28;19998;-69
2022/02/02 11:52:28;;;;;;;;;;;23.50;45.30;;;;;;5084424;28;19916;-68
2022/02/02 11:54:55;;;;;;;;;;;23.50;45.30;;;;;;5084276;28;20394;-70
2022/02/02 11:57:24;;;;;;;;;;;23.50;45.30;;;;;;5084233;28;20380;-68
2022/02/02 11:59:56;;;;;;;;;;;23.60;45.50;;;;;;5079855;28;20368;-70
2022/02/02 12:05:27;;;;;;;;;;;23.50;45.50;;;;;;5083280;28;19911;-71
2022/02/02 12:07:59;;;;;;;;;;;23.50;45.50;;;;;;5082542;28;20417;-69
2022/02/02 12:10:42;;;;;;;;;;;23.50;45.60;;;;;;5083461;28;19924;-70
2022/02/02 12:56:58;;;;;;;;;;;23.50;46.20;;;;;;5081899;28;19916;-70
2022/02/02 12:59:37;;;;;;;;;;;23.50;46.10;;;;;;5078805;28;19927;-70
2022/02/02 13:02:07;;;;;;;;;;;23.50;46.20;;;;;;5081837;28;19926;-67
2022/02/02 13:04:33;;;;;;;;;;;23.50;46.10;;;;;;5080993;28;19916;-69
2022/02/02 13:07:08;;;;;;;;;;;23.50;46.10;;;;;;5080827;28;19923;-67
2022/02/02 13:09:35;;;;;;;;;;;23.50;46.10;;;;;;5080398;28;20027;-66
2022/02/02 13:12:17;;;;;;;;;;;23.50;46.10;;;;;;5082379;28;19916;-68
2022/02/02 13:15:02;;;;;;;;;;;23.50;46.10;;;;;;5081762;28;19946;-68
2022/02/02 13:17:28;;;;;;;;;;;23.60;46.30;;;;;;5083017;28;19912;-67
2022/02/02 13:19:57;;;;;;;;;;;23.60;46.20;;;;;;5083639;28;19971;-70
2022/02/02 13:22:23;;;;;;;;;;;23.60;46.20;;;;;;5084590;28;20389;-69
2022/02/02 13:24:49;;;;;;;;;;;23.60;46.20;;;;;;5082602;28;19912;-69
2022/02/02 13:27:18;;;;;;;;;;;23.60;46.70;;;;;;5087685;28;19916;-68
2022/02/02 13:29:51;;;;;;;;;;;23.60;46.10;;;;;;5083294;28;19923;-65
2022/02/02 13:32:24;;;;;;;;;;;23.60;46.20;;;;;;5086409;28;19934;-71
2022/02/02 14:04:13;;;;;;;;;;;23.70;46.20;;;;;;5085146;28;19916;-69
2022/02/02 14:33:30;;;;;;;;;;;23.70;46.00;;;;;;5085067;28;20384;-67
2022/02/02 14:35:59;;;;;;;;;;;23.70;45.90;;;;;;5087865;28;19963;-69
2022/02/02 14:38:26;;;;;;;;;;;23.70;45.90;;;;;;5083919;28;19916;-67
2022/02/02 14:46:15;;;;;;;;;;;23.70;45.90;;;;;;5083998;28;20735;-69
2022/02/02 15:16:49;;;;;;;;;;;23.50;45.90;;;;;;5085827;28;19923;-69
2022/02/02 15:24:35;;;;;;;;;;;23.40;46.00;;;;;;5086252;28;19982;-67
2022/02/02 15:32:05;;;;;;;;;;;23.30;46.00;;;;;;5086702;28;19959;-67
2022/02/02 15:34:50;;;;;;;;;;;23.30;46.00;;;;;;5085355;28;20050;-67
2022/02/02 15:37:32;;;;;;;;;;;23.20;46.00;;;;;;5084252;28;19969;-69
2022/02/02 15:40:09;;;;;;;;;;;23.20;46.10;;;;;;5083124;28;20238;-68
2022/02/02 15:54:41;;;;;;;;;;;23.20;46.10;;;;;;5082545;28;19912;-66
2022/02/02 15:58:28;;;;;;;;;;;23.10;46.20;;;;;;5083648;28;19912;-69
2022/02/02 16:03:32;;;;;;;;;;;23.10;46.20;;;;;;5085181;28;19912;-69
2022/02/02 16:06:05;;;;;;;;;;;23.00;46.10;;;;;;5086263;28;19916;-67
2022/02/02 16:08:31;;;;;;;;;;;22.90;46.10;;;;;;5085087;28;20286;-69
2022/02/02 16:14:07;;;;;;;;;;;22.90;46.10;;;;;;5082490;28;20276;-66
2022/02/02 16:37:37;;;;;;;;;;;22.80;46.30;;;;;;5085495;28;19920;-66
2022/02/02 16:40:05;;;;;;;;;;;22.70;46.30;;;;;;5084380;28;19943;-67
2022/02/02 16:45:16;;;;;;;;;;;22.70;46.30;;;;;;5083190;28;20021;-68
2022/02/02 16:47:42;;;;;;;;;;;22.70;46.40;;;;;;5085172;28;20019;-68
2022/02/02 16:50:09;;;;;;;;;;;22.70;46.40;;;;;;5084380;28;20006;-67
2022/02/02 16:52:35;;;;;;;;;;;22.70;46.40;;;;;;5084319;28;19959;-69
2022/02/02 16:55:08;;;;;;;;;;;22.70;46.40;;;;;;5083687;28;19916;-66
2022/02/02 16:57:58;;;;;;;;;;;22.60;46.40;;;;;;5083690;28;19912;-67
2022/02/02 17:31:00;;;;;;;;;;;22.40;46.60;;;;;;5079445;28;19927;-70
2022/02/02 17:33:40;;;;;;;;;;;22.40;46.60;;;;;;5078885;28;19958;-68
2022/02/02 17:36:22;;;;;;;;;;;22.40;46.70;;;;;;5082884;28;19964;-69
2022/02/02 17:39:03;;;;;;;;;;;22.40;46.60;;;;;;5081653;28;20727;-71
2022/02/02 18:19:12;;;;;;;;;;;22.60;46.70;;;;;;5081888;28;20001;-69
2022/02/02 18:21:38;;;;;;;;;;;22.60;46.70;;;;;;5082211;28;20010;-71
2022/02/02 18:37:03;;;;;;;;;;;22.70;46.70;;;;;;5075909;28;20382;-71
2022/02/02 18:50:57;;;;;;;;;;;22.70;46.60;;;;;;5075416;28;20072;-75
2022/02/02 18:59:30;;;;;;;;;;;22.90;46.50;;;;;;5074233;28;20371;-72
2022/02/02 20:06:39;;;;;;;;;;;23.00;45.70;;;;;;5081980;28;20735;-70
2022/02/02 20:09:49;;;;;;;;;;;23.00;45.80;;;;;;5080733;28;20173;-70
2022/02/02 20:11:51;;;;;;;;;;;23.00;45.80;;;;;;5082191;28;19916;-70
2022/02/02 20:14:17;;;;;;;;;;;22.90;45.80;;;;;;5079121;28;19987;-70
2022/02/02 20:16:42;;;;;;;;;;;22.90;45.80;;;;;;5079712;28;20018;-70
2022/02/02 20:19:10;;;;;;;;;;;22.90;45.90;;;;;;5079230;28;19911;-70
2022/02/02 20:21:44;;;;;;;;;;;22.90;45.90;;;;;;5080625;28;20713;-70
2022/02/02 20:24:10;;;;;;;;;;;22.90;45.90;;;;;;5079991;28;20022;-70
2022/02/02 20:26:37;;;;;;;;;;;22.80;45.80;;;;;;5077287;28;19938;-70
2022/02/02 20:29:03;;;;;;;;;;;22.90;45.90;;;;;;5071327;28;19920;-70
2022/02/02 20:31:32;;;;;;;;;;;22.90;46.00;;;;;;5072167;28;19912;-70
2022/02/02 20:33:58;;;;;;;;;;;22.90;46.10;;;;;;5070654;28;20012;-70
2022/02/02 20:36:24;;;;;;;;;;;22.90;46.00;;;;;;5072501;28;20018;-69
2022/02/02 20:38:49;;;;;;;;;;;23.00;45.90;;;;;;5077689;28;19928;-69
2022/02/02 20:41:15;;;;;;;;;;;23.10;45.80;;;;;;5079238;28;19942;-70
2022/02/02 20:46:50;;;;;;;;;;;23.20;45.60;;;;;;5078186;28;19999;-71
2022/02/02 21:10:17;;;;;;;;;;;23.30;45.40;;;;;;5078909;28;20011;-68
2022/02/02 21:15:29;;;;;;;;;;;23.30;45.50;;;;;;5073459;28;19946;-68
2022/02/02 21:17:58;;;;;;;;;;;23.20;45.60;;;;;;5077262;28;19992;-68
2022/02/02 21:22:57;;;;;;;;;;;23.20;45.60;;;;;;5078538;28;19947;-68
2022/02/02 21:28:08;;;;;;;;;;;23.20;45.70;;;;;;5074746;28;19962;-67
2022/02/02 21:30:35;;;;;;;;;;;23.10;45.70;;;;;;5076684;28;19962;-67
2022/02/02 21:33:01;;;;;;;;;;;23.10;45.70;;;;;;5077244;28;19916;-68
2022/02/02 21:35:26;;;;;;;;;;;23.00;45.70;;;;;;5080197;28;20292;-68
2022/02/02 21:38:00;;;;;;;;;;;23.00;45.70;;;;;;5075092;28;20082;-70
2022/02/02 21:40:27;;;;;;;;;;;23.00;45.90;;;;;;5076662;28;19920;-69
2022/02/02 21:42:55;;;;;;;;;;;23.00;45.90;;;;;;5075087;28;20391;-70
2022/02/02 21:45:21;;;;;;;;;;;23.10;45.80;;;;;;5077620;28;19920;-68
2022/02/02 21:47:47;;;;;;;;;;;23.10;45.80;;;;;;5077584;28;19916;-70
2022/02/02 21:50:16;;;;;;;;;;;23.10;45.70;;;;;;5076951;28;19927;-69
2022/02/02 21:52:42;;;;;;;;;;;23.10;45.70;;;;;;5075777;28;20414;-70
2022/02/02 21:55:08;;;;;;;;;;;23.10;45.70;;;;;;5078953;28;19954;-69
2022/02/02 21:57:34;;;;;;;;;;;23.10;45.70;;;;;;5076277;28;19916;-70
2022/02/02 21:59:59;;;;;;;;;;;23.10;45.70;;;;;;5076045;28;19924;-72
2022/02/02 22:02:26;;;;;;;;;;;23.10;45.70;;;;;;5078441;28;20303;-70
2022/02/02 22:04:52;;;;;;;;;;;23.10;45.70;;;;;;5077377;28;20225;-68
2022/02/02 22:07:17;;;;;;;;;;;23.10;45.70;;;;;;5074998;28;19946;-69
2022/02/02 22:09:45;;;;;;;;;;;23.10;45.70;;;;;;5077156;28;20027;-69
2022/02/02 22:12:12;;;;;;;;;;;23.20;45.70;;;;;;5078575;28;19916;-71
2022/02/02 22:14:38;;;;;;;;;;;23.10;45.70;;;;;;5076743;28;20000;-71
2022/02/02 22:17:04;;;;;;;;;;;23.20;45.80;;;;;;5076617;28;19916;-72
2022/02/02 22:19:30;;;;;;;;;;;23.20;45.80;;;;;;5077123;28;19912;-68
2022/02/02 22:21:56;;;;;;;;;;;23.20;45.80;;;;;;5074181;28;20399;-70
2022/02/02 22:24:21;;;;;;;;;;;23.10;45.70;;;;;;5067380;28;20853;-71
2022/02/02 22:26:47;;;;;;;;;;;23.10;46.20;;;;;;5079605;28;20296;-73
2022/02/02 22:29:13;;;;;;;;;;;23.10;45.70;;;;;;5077088;28;19916;-73
2022/02/02 22:31:38;;;;;;;;;;;23.20;45.70;;;;;;5074369;28;19912;-73
2022/02/02 22:34:04;;;;;;;;;;;23.10;45.60;;;;;;5077312;28;19919;-74
2022/02/02 22:36:30;;;;;;;;;;;23.10;45.60;;;;;;5078521;28;19970;-72
2022/02/02 22:38:55;;;;;;;;;;;23.20;45.60;;;;;;5077379;28;21070;-70
2022/02/02 22:41:21;;;;;;;;;;;23.10;46.20;;;;;;5077775;28;19924;-70
2022/02/02 22:43:49;;;;;;;;;;;23.20;45.70;;;;;;5075536;28;19916;-70
2022/02/02 22:46:17;;;;;;;;;;;23.10;45.60;;;;;;5078640;28;19937;-71
2022/02/02 22:48:43;;;;;;;;;;;23.10;45.60;;;;;;5078859;28;20435;-72
2022/02/02 22:51:10;;;;;;;;;;;23.20;45.70;;;;;;5075785;28;19924;-72
2022/02/02 22:53:35;;;;;;;;;;;23.20;45.60;;;;;;5074006;28;19927;-74
2022/02/02 22:56:01;;;;;;;;;;;23.20;45.60;;;;;;5079244;28;20309;-75
2022/02/02 22:58:26;;;;;;;;;;;23.20;45.60;;;;;;5076596;28;19966;-71
2022/02/02 23:00:52;;;;;;;;;;;23.20;45.60;;;;;;5077633;28;19930;-68
2022/02/02 23:03:19;;;;;;;;;;;23.20;45.70;;;;;;5080883;28;20379;-69
2022/02/02 23:05:48;;;;;;;;;;;23.10;45.60;;;;;;5082492;28;19920;-66
2022/02/02 23:08:16;;;;;;;;;;;23.10;45.60;;;;;;5084200;28;19961;-67
2022/02/02 23:10:42;;;;;;;;;;;23.10;45.50;;;;;;5081578;28;20000;-68
2022/02/02 23:13:08;;;;;;;;;;;23.10;45.60;;;;;;5079508;28;19950;-68
2022/02/02 23:18:20;;;;;;;;;;;23.00;45.50;;;;;;5081347;28;19916;-67
2022/02/02 23:20:51;;;;;;;;;;;23.00;45.60;;;;;;5080819;28;19924;-66
2022/02/02 23:23:17;;;;;;;;;;;23.00;45.60;;;;;;5081192;28;19923;-67
2022/02/02 23:25:42;;;;;;;;;;;23.00;45.70;;;;;;5084457;28;20042;-66
2022/02/02 23:28:09;;;;;;;;;;;22.90;45.60;;;;;;5081468;28;20207;-67
2022/02/02 23:30:35;;;;;;;;;;;22.90;45.60;;;;;;5081377;28;19916;-68
2022/02/02 23:33:01;;;;;;;;;;;22.90;45.60;;;;;;5081960;28;19959;-68
2022/02/02 23:35:28;;;;;;;;;;;22.90;45.70;;;;;;5084253;28;20017;-69
2022/02/02 23:37:54;;;;;;;;;;;22.90;45.70;;;;;;5085174;28;19973;-67
2022/02/02 23:40:20;;;;;;;;;;;22.80;45.70;;;;;;5085634;28;20022;-68
2022/02/02 23:42:45;;;;;;;;;;;22.80;45.70;;;;;;5083919;28;19915;-67
2022/02/02 23:45:11;;;;;;;;;;;22.80;45.70;;;;;;5082101;28;19912;-68
2022/02/02 23:47:44;;;;;;;;;;;22.80;45.80;;;;;;5084086;28;19916;-67
2022/02/02 23:50:13;;;;;;;;;;;22.80;45.80;;;;;;5083957;28;20049;-67
2022/02/02 23:55:15;;;;;;;;;;;22.70;45.80;;;;;;5084758;28;19913;-67
2022/02/02 23:57:51;;;;;;;;;;;22.70;45.90;;;;;;5084997;28;19995;-66
